Aviation Digital Data Service (ADDS)

Output produced by TAFs form (1116 UTC 17 July 2018)
found at http://www.aviationweather.gov/adds/tafs/
 
KHSV 171053Z 20003KT 6SM BR OVC005 23/23 A3002 RMK AO2 SLP158 T02330233
KHSV 170914Z 1709/1806 00000KT 4SM BR SCT008 
     TEMPO 1709/1713 1SM BR BKN008 
     FM171400 VRB03KT P6SM SCT040 SCT250 
     FM171800 30007KT P6SM VCTS SCT040CB BKN150 
     FM180100 VRB03KT P6SM SCT250